createdAt,value
2019-05-20T00:00:56.039Z,6.20
2019-05-20T00:03:25.783Z,6.35
2019-05-20T00:05:55.587Z,6.53
2019-05-20T00:08:25.282Z,5.78
2019-05-20T00:10:55.924Z,6.35
2019-05-20T00:13:25.619Z,6.25
2019-05-20T00:15:55.321Z,6.17
2019-05-20T00:18:24.999Z,6.22
2019-05-20T00:20:54.646Z,6.60
2019-05-20T00:23:24.336Z,6.83
2019-05-20T00:25:54.056Z,6.75
2019-05-20T00:28:23.738Z,6.67
2019-05-20T00:30:54.334Z,5.92
2019-05-20T00:33:24.017Z,6.25
2019-05-20T00:35:53.777Z,7.05
2019-05-20T00:38:23.506Z,6.20
2019-05-20T00:40:53.202Z,6.62
2019-05-20T00:43:22.916Z,6.92
2019-05-20T00:45:52.529Z,6.33
2019-05-20T00:48:22.207Z,7.05
2019-05-20T00:50:51.866Z,6.65
2019-05-20T00:53:21.578Z,7.22
2019-05-20T00:55:51.359Z,7.47
2019-05-20T00:58:22.376Z,6.92
2019-05-20T01:00:52.057Z,6.97
2019-05-20T01:03:21.725Z,7.87
2019-05-20T01:05:51.420Z,7.22
2019-05-20T01:08:21.078Z,6.97
2019-05-20T01:10:50.767Z,7.22
2019-05-20T01:13:20.451Z,7.50
2019-05-20T01:15:50.067Z,7.37
2019-05-20T01:18:19.730Z,6.87
2019-05-20T01:20:49.410Z,6.97
2019-05-20T01:23:19.099Z,7.00
2019-05-20T01:25:48.824Z,7.50
2019-05-20T01:28:18.522Z,7.67
2019-05-20T01:30:48.200Z,7.35
2019-05-20T01:33:17.874Z,7.05
2019-05-20T01:35:47.587Z,7.78
2019-05-20T01:38:18.124Z,7.05
2019-05-20T01:40:47.859Z,8.20
2019-05-20T01:43:17.613Z,7.47
2019-05-20T01:45:47.286Z,7.45
2019-05-20T01:48:16.974Z,7.33
2019-05-20T01:50:46.651Z,6.65
2019-05-20T01:53:16.365Z,7.72
2019-05-20T01:55:45.946Z,7.60
2019-05-20T01:58:15.623Z,7.95
2019-05-20T02:00:45.309Z,7.90
2019-05-20T02:03:30.296Z,7.80
2019-05-20T02:05:46.373Z,7.50
2019-05-20T02:08:16.070Z,8.08
2019-05-20T02:10:45.708Z,7.75
2019-05-20T02:13:15.404Z,8.05
2019-05-20T02:16:01.225Z,7.30
2019-05-20T02:18:30.890Z,7.70
2019-05-20T02:21:01.555Z,7.42
2019-05-20T02:23:31.303Z,7.95
2019-05-20T02:26:01.013Z,7.40
2019-05-20T02:28:30.681Z,8.15
2019-05-20T02:31:00.368Z,8.53
2019-05-20T02:33:30.031Z,8.25
2019-05-20T02:35:59.636Z,8.05
2019-05-20T02:38:29.314Z,7.47
2019-05-20T02:40:59.030Z,7.78
2019-05-20T02:43:28.702Z,8.13
2019-05-20T02:45:58.375Z,8.40
2019-05-20T02:48:28.086Z,8.23
2019-05-20T02:50:57.763Z,8.53
2019-05-20T02:53:27.438Z,7.85
2019-05-20T02:55:57.141Z,8.28
2019-05-20T02:58:26.794Z,8.08
2019-05-20T03:00:56.501Z,8.53
2019-05-20T03:03:26.182Z,8.63
2019-05-20T03:05:55.949Z,8.70
2019-05-20T03:08:25.620Z,7.87
2019-05-20T03:10:55.243Z,8.45
2019-05-20T03:13:24.958Z,8.43
2019-05-20T03:15:54.636Z,8.20
2019-05-20T03:18:24.292Z,8.45
2019-05-20T03:20:53.955Z,8.75
2019-05-20T03:23:23.716Z,8.88
2019-05-20T03:25:53.424Z,8.05
2019-05-20T03:28:23.174Z,8.13
2019-05-20T03:30:52.855Z,8.55
2019-05-20T03:33:22.569Z,8.75
2019-05-20T03:35:52.287Z,8.95
2019-05-20T03:38:21.960Z,8.93
2019-05-20T03:40:51.641Z,8.65
2019-05-20T03:43:21.273Z,8.10
2019-05-20T03:45:50.967Z,8.70
2019-05-20T03:48:20.609Z,9.03
2019-05-20T03:50:50.270Z,8.55
2019-05-20T03:53:19.952Z,8.40
2019-05-20T03:55:49.655Z,8.40
2019-05-20T03:58:19.333Z,8.45
2019-05-20T04:00:48.989Z,8.18
2019-05-20T04:03:18.680Z,8.13
2019-05-20T04:05:48.353Z,8.15
2019-05-20T04:08:18.006Z,7.70
2019-05-20T04:10:47.694Z,8.43
2019-05-20T04:13:18.675Z,7.80
2019-05-20T04:15:48.621Z,7.75
2019-05-20T04:18:18.329Z,8.38
2019-05-20T04:20:48.064Z,8.05
2019-05-20T04:23:17.889Z,7.47
2019-05-20T04:25:47.572Z,8.03
2019-05-20T04:28:17.277Z,8.93
2019-05-20T04:30:47.008Z,8.48
2019-05-20T04:33:16.765Z,7.67
2019-05-20T04:35:49.695Z,7.83
2019-05-20T04:38:17.787Z,7.67
2019-05-20T04:40:47.556Z,8.50
2019-05-20T04:43:17.287Z,9.20
2019-05-20T04:45:46.946Z,9.13
2019-05-20T04:48:16.647Z,8.80
2019-05-20T04:50:46.458Z,8.23
2019-05-20T04:53:16.191Z,8.55
2019-05-20T04:55:45.897Z,8.25
2019-05-20T04:58:15.587Z,8.65
2019-05-20T05:00:52.708Z,8.28
2019-05-20T05:03:22.458Z,8.55
2019-05-20T05:05:52.159Z,8.13
2019-05-20T05:08:21.931Z,8.90
2019-05-20T05:10:51.673Z,8.55
2019-05-20T05:13:21.790Z,7.95
2019-05-20T05:15:51.482Z,8.33
2019-05-20T05:18:21.339Z,8.43
2019-05-20T05:20:51.134Z,8.43
2019-05-20T05:23:21.090Z,7.95
2019-05-20T05:25:50.780Z,7.85
2019-05-20T05:28:20.570Z,7.70
2019-05-20T05:30:50.261Z,8.43
2019-05-20T05:33:19.965Z,7.83
2019-05-20T05:35:53.374Z,7.80
2019-05-20T05:38:21.026Z,8.15
2019-05-20T05:40:50.779Z,8.10
2019-05-20T05:43:20.567Z,8.15
2019-05-20T05:45:50.238Z,8.43
2019-05-20T05:48:19.916Z,8.05
2019-05-20T05:50:49.610Z,8.30
2019-05-20T05:53:19.337Z,7.87
2019-05-20T05:55:49.045Z,7.72
2019-05-20T05:58:19.754Z,8.55
2019-05-20T06:00:49.445Z,8.18
2019-05-20T06:03:19.124Z,8.43
2019-05-20T06:05:48.803Z,7.87
2019-05-20T06:08:18.834Z,7.62
2019-05-20T06:10:48.993Z,7.75
2019-05-20T06:13:19.666Z,7.95
2019-05-20T06:15:49.406Z,7.90
2019-05-20T06:18:19.082Z,8.48
2019-05-20T06:20:48.809Z,7.95
2019-05-20T06:23:18.580Z,8.13
2019-05-20T06:25:49.363Z,7.83
2019-05-20T06:28:19.028Z,8.23
2019-05-20T06:30:49.694Z,7.95
2019-05-20T06:33:19.431Z,9.05
2019-05-20T06:35:49.248Z,8.23
2019-05-20T06:38:41.575Z,8.00
2019-05-20T06:41:11.358Z,7.47
2019-05-20T06:43:41.051Z,8.65
2019-05-20T06:46:10.711Z,8.45
2019-05-20T06:48:40.390Z,8.23
2019-05-20T06:51:10.496Z,8.28
2019-05-20T06:53:40.983Z,9.43
2019-05-20T06:56:10.681Z,9.88
2019-05-20T06:58:40.365Z,9.15
2019-05-20T07:01:10.059Z,10.08
2019-05-20T07:03:40.287Z,10.28
2019-05-20T07:06:11.081Z,9.93
2019-05-20T07:08:40.734Z,9.50
2019-05-20T07:11:10.443Z,9.60
2019-05-20T07:13:40.151Z,9.88
2019-05-20T07:16:09.812Z,9.50
2019-05-20T07:18:39.544Z,9.25
2019-05-20T07:21:09.219Z,9.55
2019-05-20T07:23:38.907Z,9.20
2019-05-20T07:26:08.599Z,9.63
2019-05-20T07:28:38.468Z,8.73
2019-05-20T07:31:08.208Z,9.00
2019-05-20T07:33:37.967Z,9.05
2019-05-20T07:36:09.979Z,8.28
2019-05-20T07:38:39.013Z,7.87
2019-05-20T07:41:08.719Z,8.38
2019-05-20T07:43:38.500Z,9.80
2019-05-20T07:46:10.041Z,8.80
2019-05-20T07:48:41.165Z,8.43
2019-05-20T07:51:11.741Z,8.90
2019-05-20T07:53:42.076Z,8.23
2019-05-20T07:56:13.996Z,8.40
2019-05-20T07:58:46.579Z,8.68
2019-05-20T08:01:16.404Z,8.20
2019-05-20T08:03:46.086Z,8.90
2019-05-20T08:06:15.848Z,8.25
2019-05-20T08:08:45.589Z,9.18
2019-05-20T08:11:15.438Z,10.03
2019-05-20T08:13:45.246Z,10.58
2019-05-20T08:16:15.026Z,9.05
2019-05-20T08:18:44.812Z,8.65
2019-05-20T08:21:14.489Z,8.83
2019-05-20T08:23:44.111Z,8.25
2019-05-20T08:26:13.798Z,8.38
2019-05-20T08:28:43.516Z,8.90
2019-05-20T08:31:13.226Z,8.20
2019-05-20T08:33:42.964Z,9.40
2019-05-20T08:36:12.637Z,8.58
2019-05-20T08:38:42.342Z,8.33
2019-05-20T08:41:12.054Z,8.65
2019-05-20T08:43:41.816Z,9.83
2019-05-20T08:46:11.485Z,9.23
2019-05-20T08:48:41.271Z,8.28
2019-05-20T08:51:10.994Z,9.33
2019-05-20T08:53:40.725Z,7.85
2019-05-20T08:56:10.455Z,7.62
2019-05-20T08:58:40.163Z,8.83
2019-05-20T09:01:11.621Z,7.95
2019-05-20T09:03:42.286Z,7.72
2019-05-20T09:06:11.980Z,8.68
2019-05-20T09:08:41.733Z,8.55
2019-05-20T09:11:11.533Z,8.90
2019-05-20T09:13:41.211Z,8.58
2019-05-20T09:16:10.929Z,8.63
2019-05-20T09:18:40.595Z,9.25
2019-05-20T09:21:11.678Z,9.03
2019-05-20T09:23:42.827Z,9.25
2019-05-20T09:26:12.504Z,8.53
2019-05-20T09:28:42.268Z,8.98
2019-05-20T09:31:12.069Z,8.43
2019-05-20T09:33:41.868Z,8.78
2019-05-20T09:36:11.585Z,8.48
2019-05-20T09:38:41.418Z,8.43
2019-05-20T09:41:12.226Z,8.43
2019-05-20T09:43:41.962Z,8.65
2019-05-20T09:46:11.681Z,8.85
2019-05-20T09:48:41.356Z,8.75
2019-05-20T09:51:11.058Z,8.95
2019-05-20T09:53:40.757Z,9.20
2019-05-20T09:56:10.480Z,8.90
2019-05-20T09:58:40.303Z,7.95
2019-05-20T10:01:10.095Z,8.70
2019-05-20T10:03:39.844Z,9.28
2019-05-20T10:06:09.655Z,9.25
2019-05-20T10:08:44.739Z,9.40
2019-05-20T10:11:10.720Z,9.70
2019-05-20T10:13:41.101Z,9.43
2019-05-20T10:16:11.925Z,9.80
2019-05-20T10:18:41.568Z,9.80
2019-05-20T10:21:11.279Z,9.70
2019-05-20T10:23:40.987Z,9.03
2019-05-20T10:26:10.730Z,9.60
2019-05-20T10:28:41.945Z,8.80
2019-05-20T10:31:11.799Z,9.05
2019-05-20T10:33:41.522Z,9.33
2019-05-20T10:36:11.285Z,10.25
2019-05-20T10:38:56.815Z,13.38
2019-05-20T10:41:12.354Z,10.18
2019-05-20T10:43:42.110Z,11.90
2019-05-20T10:46:11.889Z,11.22
2019-05-20T10:48:41.667Z,10.82
2019-05-20T10:51:11.324Z,10.20
2019-05-20T10:53:41.032Z,10.15
2019-05-20T10:56:10.833Z,9.75
2019-05-20T10:58:40.521Z,10.20
2019-05-20T11:01:10.323Z,9.65
2019-05-20T11:03:40.036Z,9.65
2019-05-20T11:06:09.683Z,9.98
2019-05-20T11:08:39.379Z,8.65
2019-05-20T11:11:13.858Z,9.53
2019-05-20T11:13:40.587Z,8.98
2019-05-20T11:16:10.306Z,9.65
2019-05-20T11:18:39.989Z,9.03
2019-05-20T11:21:09.685Z,10.60
2019-05-20T11:23:39.420Z,9.90
2019-05-20T11:26:10.228Z,10.40
2019-05-20T11:28:39.928Z,10.00
2019-05-20T11:31:09.632Z,10.08
2019-05-20T11:33:39.350Z,9.80
2019-05-20T11:36:09.031Z,11.18
2019-05-20T11:38:38.855Z,11.90
2019-05-20T11:41:08.556Z,11.12
2019-05-20T11:43:38.239Z,10.75
2019-05-20T11:46:07.937Z,11.55
2019-05-20T11:48:37.655Z,11.15
2019-05-20T11:51:07.424Z,11.20
2019-05-20T11:53:37.102Z,11.22
2019-05-20T11:56:06.836Z,11.73
2019-05-20T11:58:36.490Z,12.23
2019-05-20T12:01:06.191Z,12.23
2019-05-20T12:03:35.919Z,11.63
2019-05-20T12:06:06.002Z,12.50
2019-05-20T12:08:36.019Z,12.47
2019-05-20T12:11:05.736Z,12.23
2019-05-20T12:13:35.483Z,12.28
2019-05-20T12:16:05.286Z,12.37
2019-05-20T12:18:35.019Z,11.80
2019-05-20T12:21:04.915Z,12.60
2019-05-20T12:23:34.622Z,12.95
2019-05-20T12:26:04.358Z,14.75
2019-05-20T12:28:34.213Z,14.80
2019-05-20T12:31:03.958Z,13.40
2019-05-20T12:33:33.691Z,13.98
2019-05-20T12:36:03.482Z,14.83
2019-05-20T12:38:33.277Z,15.28
2019-05-20T12:41:03.092Z,13.70
2019-05-20T12:43:32.966Z,14.70
2019-05-20T12:46:02.763Z,15.90
2019-05-20T12:48:32.615Z,14.25
2019-05-20T12:51:02.340Z,14.70
2019-05-20T12:53:31.993Z,16.05
2019-05-20T12:56:01.697Z,14.95
2019-05-20T12:58:31.735Z,14.90
2019-05-20T13:01:01.573Z,15.90
2019-05-20T13:03:31.263Z,13.93
2019-05-20T13:06:01.127Z,15.95
2019-05-20T13:08:30.970Z,16.02
2019-05-20T13:11:01.097Z,15.05
2019-05-20T13:13:32.084Z,14.35
2019-05-20T13:16:02.091Z,13.45
2019-05-20T13:18:32.100Z,14.40
2019-05-20T13:21:02.276Z,14.40
2019-05-20T13:23:32.365Z,13.80
2019-05-20T13:26:02.369Z,15.68
2019-05-20T13:28:32.281Z,14.70
2019-05-20T13:31:02.126Z,13.72
2019-05-20T13:33:33.764Z,14.30
2019-05-20T13:36:03.896Z,15.30
2019-05-20T13:38:33.692Z,15.58
2019-05-20T13:41:03.410Z,14.60
2019-05-20T13:43:33.408Z,14.63
2019-05-20T13:46:03.476Z,14.40
2019-05-20T13:48:33.430Z,13.98
2019-05-20T13:51:04.619Z,14.45
2019-05-20T13:53:34.562Z,13.78
2019-05-20T13:56:04.596Z,14.30
2019-05-20T13:58:34.546Z,13.55
2019-05-20T14:01:04.515Z,13.70
2019-05-20T14:03:34.430Z,13.68
2019-05-20T14:06:05.472Z,14.28
2019-05-20T14:08:35.355Z,13.58
2019-05-20T14:11:05.461Z,13.78
2019-05-20T14:13:35.423Z,14.35
2019-05-20T14:16:05.287Z,14.60
2019-05-20T14:18:35.098Z,13.28
2019-05-20T14:21:05.039Z,13.40
2019-05-20T14:23:35.352Z,14.18
2019-05-20T14:26:05.323Z,14.43
2019-05-20T14:28:35.331Z,9.05
2019-05-20T14:31:06.274Z,4.03
2019-05-20T14:33:36.364Z,3.00
2019-05-20T14:36:06.242Z,2.40
2019-05-20T14:38:36.192Z,2.90
2019-05-20T14:41:20.428Z,1.82
2019-05-20T14:43:37.354Z,1.87
2019-05-20T14:46:07.112Z,1.52
2019-05-20T14:48:37.054Z,1.70
2019-05-20T14:51:06.882Z,1.10
2019-05-20T14:53:36.672Z,1.10
2019-05-20T14:56:06.460Z,1.35
2019-05-20T14:58:36.229Z,1.40
2019-05-20T15:01:07.126Z,1.07
2019-05-20T15:03:36.910Z,1.00
2019-05-20T15:06:06.699Z,1.02
2019-05-20T15:08:36.561Z,1.27
2019-05-20T15:11:06.388Z,1.00
2019-05-20T15:13:36.258Z,0.90
2019-05-20T15:16:06.111Z,0.90
2019-05-20T15:18:35.905Z,0.90
2019-05-20T15:21:05.765Z,0.90
2019-05-20T15:23:35.560Z,1.10
2019-05-20T15:26:05.436Z,0.90
2019-05-20T15:28:35.252Z,0.82
2019-05-20T15:31:08.793Z,1.15
2019-05-20T15:33:38.699Z,0.93
2019-05-20T15:36:08.435Z,0.90
2019-05-20T15:38:38.341Z,0.90
2019-05-20T15:41:08.175Z,0.90
2019-05-20T15:43:38.048Z,1.00
2019-05-20T15:46:07.907Z,0.90
2019-05-20T15:48:39.450Z,1.00
2019-05-20T15:51:09.211Z,1.10
2019-05-20T15:53:39.073Z,1.30
2019-05-20T15:56:09.441Z,1.20
2019-05-20T15:58:39.356Z,1.20
2019-05-20T16:01:12.396Z,1.20
2019-05-20T16:03:42.272Z,1.30
2019-05-20T16:06:12.220Z,1.17
2019-05-20T16:08:42.380Z,1.20
2019-05-20T16:11:14.259Z,1.35
2019-05-20T16:13:44.195Z,1.10
2019-05-20T16:16:14.337Z,1.17
2019-05-20T16:18:44.373Z,1.55
2019-05-20T16:21:14.528Z,4.03
2019-05-20T16:23:51.034Z,1.30
2019-05-20T16:26:24.878Z,1.17
2019-05-20T16:28:54.684Z,2.95
2019-05-20T16:31:24.488Z,1.50
2019-05-20T16:33:54.458Z,1.35
2019-05-20T16:36:24.291Z,1.42
2019-05-20T16:41:33.497Z,1.32
2019-05-20T16:44:03.696Z,1.30
2019-05-20T16:46:33.515Z,1.37
2019-05-20T16:49:03.538Z,1.60
2019-05-20T16:51:34.497Z,1.67
2019-05-20T16:54:04.420Z,1.60
2019-05-20T16:56:35.298Z,1.80
2019-05-20T16:59:05.066Z,1.60
2019-05-20T17:01:45.901Z,1.70
2019-05-20T17:04:06.629Z,1.60
2019-05-20T17:06:36.802Z,1.72
2019-05-20T17:09:06.636Z,1.62
2019-05-20T17:11:36.454Z,1.98
2019-05-20T17:14:06.193Z,2.17
2019-05-20T17:16:35.985Z,1.85
2019-05-20T17:19:05.736Z,3.70
2019-05-20T17:21:35.440Z,2.15
2019-05-20T17:24:05.290Z,2.92
2019-05-20T17:26:35.061Z,2.17
2019-05-20T17:29:04.852Z,2.33
2019-05-20T17:31:35.540Z,1.98
2019-05-20T17:34:05.350Z,2.05
2019-05-20T17:36:35.053Z,2.27
2019-05-20T17:39:05.925Z,2.17
2019-05-20T17:41:35.651Z,2.02
2019-05-20T17:44:05.492Z,2.00
2019-05-20T17:46:35.254Z,2.20
2019-05-20T17:49:05.175Z,2.30
2019-05-20T17:51:34.996Z,5.33
2019-05-20T17:54:04.782Z,8.75
2019-05-20T17:56:34.556Z,3.30
2019-05-20T17:59:04.269Z,2.52
2019-05-20T18:01:34.052Z,2.77
2019-05-20T18:04:03.992Z,3.00
2019-05-20T18:06:33.843Z,2.50
2019-05-20T18:09:05.091Z,2.47
2019-05-20T18:11:35.612Z,2.90
2019-05-20T18:14:05.479Z,2.20
2019-05-20T18:16:35.259Z,2.27
2019-05-20T18:19:05.046Z,4.40
2019-05-20T18:21:34.805Z,3.10
2019-05-20T18:24:04.754Z,2.50
2019-05-20T18:26:34.483Z,2.20
2019-05-20T18:29:05.237Z,2.40
2019-05-20T18:31:36.198Z,2.25
2019-05-20T18:34:07.006Z,2.12
2019-05-20T18:36:38.897Z,2.42
2019-05-20T18:39:08.721Z,2.17
2019-05-20T18:41:38.530Z,2.37
2019-05-20T18:44:08.482Z,2.50
2019-05-20T18:46:39.417Z,2.37
2019-05-20T18:49:09.213Z,2.50
2019-05-20T18:51:38.930Z,2.45
2019-05-20T18:54:11.715Z,2.90
2019-05-20T18:56:41.467Z,2.80
2019-05-20T18:59:11.712Z,3.02
2019-05-20T19:01:50.894Z,2.92
2019-05-20T19:04:14.605Z,2.80
2019-05-20T19:06:44.477Z,3.45
2019-05-20T19:09:14.641Z,3.05
2019-05-20T19:11:44.778Z,2.60
2019-05-20T19:14:14.653Z,3.10
2019-05-20T19:16:44.453Z,3.33
2019-05-20T19:19:14.330Z,2.80
2019-05-20T19:21:44.148Z,3.27
2019-05-20T19:24:14.441Z,2.90
2019-05-20T19:26:45.839Z,2.67
2019-05-20T19:29:15.642Z,2.98
2019-05-20T19:32:00.694Z,2.98
2019-05-20T19:34:19.538Z,2.80
2019-05-20T19:36:49.393Z,2.55
2019-05-20T19:39:19.267Z,2.50
2019-05-20T19:41:49.152Z,2.65
2019-05-20T19:44:19.023Z,2.85
2019-05-20T19:46:48.930Z,2.35
2019-05-20T19:49:19.826Z,3.17
2019-05-20T19:51:49.590Z,3.30
2019-05-20T19:54:19.390Z,2.85
2019-05-20T19:56:49.315Z,3.20
2019-05-20T19:59:19.149Z,2.22
2019-05-20T20:01:48.993Z,2.98
2019-05-20T20:04:18.920Z,3.20
2019-05-20T20:06:50.100Z,3.08
2019-05-20T20:09:19.970Z,2.92
2019-05-20T20:11:50.197Z,3.02
2019-05-20T20:14:20.235Z,3.00
2019-05-20T20:16:49.980Z,3.10
2019-05-20T20:19:19.697Z,2.80
2019-05-20T20:21:51.884Z,3.17
2019-05-20T20:24:21.614Z,2.75
2019-05-20T20:26:51.406Z,3.22
2019-05-20T20:29:21.107Z,2.70
2019-05-20T20:31:51.091Z,3.10
2019-05-20T20:34:20.836Z,3.15
2019-05-20T20:36:50.568Z,3.10
2019-05-20T20:39:20.552Z,2.90
2019-05-20T20:41:50.361Z,2.65
2019-05-20T20:44:20.075Z,3.10
2019-05-20T20:46:51.840Z,2.75
2019-05-20T20:49:21.624Z,3.17
2019-05-20T20:51:51.372Z,3.10
2019-05-20T20:54:21.117Z,3.20
2019-05-20T20:56:51.018Z,3.08
2019-05-20T20:59:20.871Z,3.35
2019-05-20T21:01:54.103Z,3.75
2019-05-20T21:04:22.071Z,3.40
2019-05-20T21:06:52.143Z,3.50
2019-05-20T21:09:22.067Z,3.10
2019-05-20T21:11:51.808Z,3.30
2019-05-20T21:14:21.578Z,3.50
2019-05-20T21:16:53.840Z,3.10
2019-05-20T21:19:24.575Z,3.10
2019-05-20T21:21:54.373Z,3.52
2019-05-20T21:24:24.113Z,3.77
2019-05-20T21:26:54.911Z,3.83
2019-05-20T21:29:24.642Z,3.67
2019-05-20T21:31:54.351Z,3.12
2019-05-20T21:34:24.008Z,3.58
2019-05-20T21:36:53.696Z,3.90
2019-05-20T21:39:23.386Z,3.70
2019-05-20T21:41:53.101Z,3.90
2019-05-20T21:44:22.787Z,3.85
2019-05-20T21:46:52.486Z,3.60
2019-05-20T21:49:22.181Z,3.83
2019-05-20T21:51:51.876Z,3.65
2019-05-20T21:54:21.575Z,3.30
2019-05-20T21:56:51.274Z,3.33
2019-05-20T21:59:20.992Z,3.40
2019-05-20T22:01:50.676Z,3.60
2019-05-20T22:04:20.451Z,3.65
2019-05-20T22:06:50.208Z,3.10
2019-05-20T22:09:19.927Z,3.33
2019-05-20T22:11:49.733Z,3.47
2019-05-20T22:14:19.439Z,3.22
2019-05-20T22:16:49.207Z,3.58
2019-05-20T22:19:18.976Z,3.25
2019-05-20T22:21:54.907Z,3.50
2019-05-20T22:24:24.631Z,3.33
2019-05-20T22:26:54.534Z,3.77
2019-05-20T22:29:24.260Z,3.80
2019-05-20T22:31:54.090Z,3.15
2019-05-20T22:34:23.818Z,3.40
2019-05-20T22:36:53.485Z,3.02
2019-05-20T22:39:25.103Z,3.70
2019-05-20T22:41:54.832Z,3.33
2019-05-20T22:44:24.533Z,3.25
2019-05-20T22:46:54.238Z,3.50
2019-05-20T22:49:23.993Z,3.55
2019-05-20T22:51:53.700Z,4.00
2019-05-20T22:54:23.410Z,3.67
2019-05-20T22:56:53.082Z,3.70
2019-05-20T22:59:22.790Z,3.37
2019-05-20T23:01:52.535Z,3.45
2019-05-20T23:04:22.244Z,3.58
2019-05-20T23:06:52.142Z,3.70
2019-05-20T23:09:21.931Z,3.55
2019-05-20T23:11:51.611Z,3.50
2019-05-20T23:14:22.527Z,3.85
2019-05-20T23:16:52.238Z,3.47
2019-05-20T23:19:22.003Z,3.55
2019-05-20T23:21:51.680Z,3.58
2019-05-20T23:24:21.379Z,3.80
2019-05-20T23:26:51.063Z,3.75
2019-05-20T23:29:20.731Z,4.00
2019-05-20T23:31:50.435Z,4.00
2019-05-20T23:34:20.163Z,3.45
2019-05-20T23:36:49.956Z,3.80
2019-05-20T23:39:19.675Z,3.80
2019-05-20T23:41:49.449Z,4.00
2019-05-20T23:44:19.295Z,4.35
2019-05-20T23:46:49.015Z,3.55
2019-05-20T23:49:18.709Z,3.80
2019-05-20T23:51:48.412Z,3.58
2019-05-20T23:54:18.114Z,3.42
2019-05-20T23:56:47.823Z,4.08
2019-05-20T23:59:17.505Z,3.87
